sensor_id;sensor_type;location;lat;lon;timestamp;temperature;humidity
8850;DHT22;5638;50.860;4.698;2022-10-18T00:02:01;16.50;99.90
8850;DHT22;5638;50.860;4.698;2022-10-18T00:04:27;16.50;99.90
8850;DHT22;5638;50.860;4.698;2022-10-18T00:06:52;16.50;99.90
8850;DHT22;5638;50.860;4.698;2022-10-18T00:09:18;16.50;99.90
8850;DHT22;5638;50.860;4.698;2022-10-18T00:11:44;16.50;99.90
8850;DHT22;5638;50.860;4.698;2022-10-18T00:14:10;16.50;99.90
8850;DHT22;5638;50.860;4.698;2022-10-18T00:16:36;16.60;99.90
8850;DHT22;5638;50.860;4.698;2022-10-18T00:19:02;16.60;99.90
8850;DHT22;5638;50.860;4.698;2022-10-18T00:21:28;16.60;99.90
8850;DHT22;5638;50.860;4.698;2022-10-18T00:23:54;16.50;99.90
8850;DHT22;5638;50.860;4.698;2022-10-18T00:26:23;16.50;99.90
8850;DHT22;5638;50.860;4.698;2022-10-18T00:28:57;16.60;99.90
8850;DHT22;5638;50.860;4.698;2022-10-18T00:31:29;16.50;99.90
8850;DHT22;5638;50.860;4.698;2022-10-18T00:33:59;16.50;99.90
8850;DHT22;5638;50.860;4.698;2022-10-18T00:36:40;16.50;99.90
8850;DHT22;5638;50.860;4.698;2022-10-18T00:39:11;16.50;99.90
8850;DHT22;5638;50.860;4.698;2022-10-18T00:41:40;16.50;99.90
8850;DHT22;5638;50.860;4.698;2022-10-18T00:46:46;16.50;99.90
8850;DHT22;5638;50.860;4.698;2022-10-18T00:52:05;16.60;99.90
8850;DHT22;5638;50.860;4.698;2022-10-18T00:54:38;16.50;99.90
8850;DHT22;5638;50.860;4.698;2022-10-18T00:57:06;16.50;99.90
8850;DHT22;5638;50.860;4.698;2022-10-18T00:59:33;16.50;99.90
8850;DHT22;5638;50.860;4.698;2022-10-18T01:02:00;16.60;99.90
8850;DHT22;5638;50.860;4.698;2022-10-18T01:04:27;16.60;99.90
8850;DHT22;5638;50.860;4.698;2022-10-18T01:07:11;16.50;99.90
8850;DHT22;5638;50.860;4.698;2022-10-18T01:10:17;16.50;99.90
8850;DHT22;5638;50.860;4.698;2022-10-18T01:13:05;16.60;99.90
8850;DHT22;5638;50.860;4.698;2022-10-18T01:22:11;16.60;99.90
8850;DHT22;5638;50.860;4.698;2022-10-18T01:27:42;16.50;99.90
8850;DHT22;5638;50.860;4.698;2022-10-18T01:33:20;16.50;99.90
8850;DHT22;5638;50.860;4.698;2022-10-18T01:35:58;16.50;99.90
8850;DHT22;5638;50.860;4.698;2022-10-18T01:38:30;16.50;99.90
8850;DHT22;5638;50.860;4.698;2022-10-18T01:41:00;16.50;99.90
8850;DHT22;5638;50.860;4.698;2022-10-18T01:43:29;16.50;99.90
8850;DHT22;5638;50.860;4.698;2022-10-18T01:45:57;16.50;99.90
8850;DHT22;5638;50.860;4.698;2022-10-18T01:48:25;16.50;99.90
8850;DHT22;5638;50.860;4.698;2022-10-18T01:50:52;16.50;99.90
8850;DHT22;5638;50.860;4.698;2022-10-18T01:53:23;16.50;99.90
8850;DHT22;5638;50.860;4.698;2022-10-18T01:56:03;16.50;99.90
8850;DHT22;5638;50.860;4.698;2022-10-18T02:02:01;16.50;99.90
8850;DHT22;5638;50.860;4.698;2022-10-18T02:04:42;16.50;99.90
8850;DHT22;5638;50.860;4.698;2022-10-18T02:07:31;16.50;99.90
8850;DHT22;5638;50.860;4.698;2022-10-18T02:10:21;16.50;99.90
8850;DHT22;5638;50.860;4.698;2022-10-18T02:12:55;16.50;99.90
8850;DHT22;5638;50.860;4.698;2022-10-18T02:15:43;16.50;99.90
8850;DHT22;5638;50.860;4.698;2022-10-18T02:18:16;16.50;99.90
8850;DHT22;5638;50.860;4.698;2022-10-18T02:20:47;16.50;99.90
8850;DHT22;5638;50.860;4.698;2022-10-18T02:23:14;16.50;99.90
8850;DHT22;5638;50.860;4.698;2022-10-18T02:25:45;16.50;99.90
8850;DHT22;5638;50.860;4.698;2022-10-18T02:28:11;16.40;99.90
8850;DHT22;5638;50.860;4.698;2022-10-18T02:30:45;16.40;99.90
8850;DHT22;5638;50.860;4.698;2022-10-18T02:33:25;16.40;99.90
8850;DHT22;5638;50.860;4.698;2022-10-18T02:36:03;16.40;99.90
8850;DHT22;5638;50.860;4.698;2022-10-18T02:38:37;16.40;99.90
8850;DHT22;5638;50.860;4.698;2022-10-18T02:41:06;16.40;99.90
8850;DHT22;5638;50.860;4.698;2022-10-18T02:43:32;16.40;99.90
8850;DHT22;5638;50.860;4.698;2022-10-18T02:46:00;16.40;99.90
8850;DHT22;5638;50.860;4.698;2022-10-18T02:48:26;16.40;99.90
8850;DHT22;5638;50.860;4.698;2022-10-18T02:50:52;16.40;99.90
8850;DHT22;5638;50.860;4.698;2022-10-18T02:53:18;16.40;99.90
8850;DHT22;5638;50.860;4.698;2022-10-18T02:55:43;16.40;99.90
8850;DHT22;5638;50.860;4.698;2022-10-18T02:58:09;16.40;99.90
8850;DHT22;5638;50.860;4.698;2022-10-18T03:00:35;16.40;99.90
8850;DHT22;5638;50.860;4.698;2022-10-18T03:03:01;16.40;99.90
8850;DHT22;5638;50.860;4.698;2022-10-18T03:05:27;16.40;99.90
8850;DHT22;5638;50.860;4.698;2022-10-18T03:07:55;16.40;99.90
8850;DHT22;5638;50.860;4.698;2022-10-18T03:10:22;16.40;99.90
8850;DHT22;5638;50.860;4.698;2022-10-18T03:12:47;16.40;99.90
8850;DHT22;5638;50.860;4.698;2022-10-18T03:15:13;16.40;99.90
8850;DHT22;5638;50.860;4.698;2022-10-18T03:17:39;16.40;99.90
8850;DHT22;5638;50.860;4.698;2022-10-18T03:20:05;16.40;99.90
8850;DHT22;5638;50.860;4.698;2022-10-18T03:22:31;16.40;99.90
8850;DHT22;5638;50.860;4.698;2022-10-18T03:24:57;16.40;99.90
8850;DHT22;5638;50.860;4.698;2022-10-18T03:27:23;16.40;99.90
8850;DHT22;5638;50.860;4.698;2022-10-18T03:29:49;16.40;99.90
8850;DHT22;5638;50.860;4.698;2022-10-18T03:32:15;16.40;99.90
8850;DHT22;5638;50.860;4.698;2022-10-18T03:34:40;16.40;99.90
8850;DHT22;5638;50.860;4.698;2022-10-18T03:37:06;16.40;99.90
8850;DHT22;5638;50.860;4.698;2022-10-18T03:39:32;16.40;99.90
8850;DHT22;5638;50.860;4.698;2022-10-18T03:41:58;16.40;99.90
8850;DHT22;5638;50.860;4.698;2022-10-18T03:44:23;16.40;99.90
8850;DHT22;5638;50.860;4.698;2022-10-18T03:46:49;16.40;99.90
8850;DHT22;5638;50.860;4.698;2022-10-18T03:49:15;16.40;99.90
8850;DHT22;5638;50.860;4.698;2022-10-18T03:51:41;16.40;99.90
8850;DHT22;5638;50.860;4.698;2022-10-18T03:54:07;16.40;99.90
8850;DHT22;5638;50.860;4.698;2022-10-18T03:56:33;16.40;99.90
8850;DHT22;5638;50.860;4.698;2022-10-18T03:58:58;16.40;99.90
8850;DHT22;5638;50.860;4.698;2022-10-18T04:01:24;16.40;99.90
8850;DHT22;5638;50.860;4.698;2022-10-18T04:03:50;16.40;99.90
8850;DHT22;5638;50.860;4.698;2022-10-18T04:06:16;16.40;99.90
8850;DHT22;5638;50.860;4.698;2022-10-18T04:08:42;16.50;99.90
8850;DHT22;5638;50.860;4.698;2022-10-18T04:11:08;16.40;99.90
8850;DHT22;5638;50.860;4.698;2022-10-18T04:13:35;16.50;99.90
8850;DHT22;5638;50.860;4.698;2022-10-18T04:16:01;16.50;99.90
8850;DHT22;5638;50.860;4.698;2022-10-18T04:18:27;16.50;99.90
8850;DHT22;5638;50.860;4.698;2022-10-18T04:20:53;16.50;99.90
8850;DHT22;5638;50.860;4.698;2022-10-18T04:23:19;16.50;99.90
8850;DHT22;5638;50.860;4.698;2022-10-18T04:25:45;16.40;99.90
8850;DHT22;5638;50.860;4.698;2022-10-18T04:28:10;16.40;99.90
8850;DHT22;5638;50.860;4.698;2022-10-18T04:30:36;16.40;99.90
8850;DHT22;5638;50.860;4.698;2022-10-18T04:33:02;16.40;99.90
8850;DHT22;5638;50.860;4.698;2022-10-18T04:35:28;16.40;99.90
8850;DHT22;5638;50.860;4.698;2022-10-18T04:37:54;16.40;99.90
8850;DHT22;5638;50.860;4.698;2022-10-18T04:40:20;16.40;99.90
8850;DHT22;5638;50.860;4.698;2022-10-18T04:42:46;16.40;99.90
8850;DHT22;5638;50.860;4.698;2022-10-18T04:45:12;16.40;99.90
8850;DHT22;5638;50.860;4.698;2022-10-18T04:47:38;16.40;99.90
8850;DHT22;5638;50.860;4.698;2022-10-18T04:50:04;16.40;99.90
8850;DHT22;5638;50.860;4.698;2022-10-18T04:52:30;16.40;99.90
8850;DHT22;5638;50.860;4.698;2022-10-18T04:54:56;16.40;99.90
8850;DHT22;5638;50.860;4.698;2022-10-18T04:57:25;16.40;99.90
8850;DHT22;5638;50.860;4.698;2022-10-18T04:59:51;16.40;99.90
8850;DHT22;5638;50.860;4.698;2022-10-18T05:02:16;16.40;99.90
8850;DHT22;5638;50.860;4.698;2022-10-18T05:04:42;16.40;99.90
8850;DHT22;5638;50.860;4.698;2022-10-18T05:07:08;16.40;99.90
8850;DHT22;5638;50.860;4.698;2022-10-18T05:09:34;16.40;99.90
8850;DHT22;5638;50.860;4.698;2022-10-18T05:11:59;16.40;99.90
8850;DHT22;5638;50.860;4.698;2022-10-18T05:14:25;16.40;99.90
8850;DHT22;5638;50.860;4.698;2022-10-18T05:16:51;16.40;99.90
8850;DHT22;5638;50.860;4.698;2022-10-18T05:19:17;16.40;99.90
8850;DHT22;5638;50.860;4.698;2022-10-18T05:21:43;16.40;99.90
8850;DHT22;5638;50.860;4.698;2022-10-18T05:24:10;16.30;99.90
8850;DHT22;5638;50.860;4.698;2022-10-18T05:26:36;16.30;99.90
8850;DHT22;5638;50.860;4.698;2022-10-18T05:29:03;16.30;99.90
8850;DHT22;5638;50.860;4.698;2022-10-18T05:31:28;16.30;99.90
8850;DHT22;5638;50.860;4.698;2022-10-18T05:33:54;16.30;99.90
8850;DHT22;5638;50.860;4.698;2022-10-18T05:36:20;16.30;99.90
8850;DHT22;5638;50.860;4.698;2022-10-18T05:38:46;16.30;99.90
8850;DHT22;5638;50.860;4.698;2022-10-18T05:41:13;16.30;99.90
8850;DHT22;5638;50.860;4.698;2022-10-18T05:43:39;16.30;99.90
8850;DHT22;5638;50.860;4.698;2022-10-18T05:46:05;16.30;99.90
8850;DHT22;5638;50.860;4.698;2022-10-18T05:48:33;16.30;99.90
8850;DHT22;5638;50.860;4.698;2022-10-18T05:50:59;16.30;99.90
8850;DHT22;5638;50.860;4.698;2022-10-18T05:53:26;16.30;99.90
8850;DHT22;5638;50.860;4.698;2022-10-18T05:55:52;16.20;99.90
8850;DHT22;5638;50.860;4.698;2022-10-18T05:58:18;16.30;99.90
8850;DHT22;5638;50.860;4.698;2022-10-18T06:00:44;16.20;99.90
8850;DHT22;5638;50.860;4.698;2022-10-18T06:03:10;16.20;99.90
8850;DHT22;5638;50.860;4.698;2022-10-18T06:05:36;16.20;99.90
8850;DHT22;5638;50.860;4.698;2022-10-18T06:08:02;16.20;99.90
8850;DHT22;5638;50.860;4.698;2022-10-18T06:10:28;16.20;99.90
8850;DHT22;5638;50.860;4.698;2022-10-18T06:12:54;16.20;99.90
8850;DHT22;5638;50.860;4.698;2022-10-18T06:15:20;16.20;99.90
8850;DHT22;5638;50.860;4.698;2022-10-18T06:17:45;16.10;99.90
8850;DHT22;5638;50.860;4.698;2022-10-18T06:20:11;16.10;99.90
8850;DHT22;5638;50.860;4.698;2022-10-18T06:22:37;16.10;99.90
8850;DHT22;5638;50.860;4.698;2022-10-18T06:25:03;16.10;99.90
8850;DHT22;5638;50.860;4.698;2022-10-18T06:27:29;16.10;99.90
8850;DHT22;5638;50.860;4.698;2022-10-18T06:29:56;16.10;99.90
8850;DHT22;5638;50.860;4.698;2022-10-18T06:32:22;16.10;99.90
8850;DHT22;5638;50.860;4.698;2022-10-18T06:34:47;16.10;99.90
8850;DHT22;5638;50.860;4.698;2022-10-18T06:37:13;16.10;99.90
8850;DHT22;5638;50.860;4.698;2022-10-18T06:39:39;16.00;99.90
8850;DHT22;5638;50.860;4.698;2022-10-18T06:42:05;16.10;99.90
8850;DHT22;5638;50.860;4.698;2022-10-18T06:44:31;16.10;99.90
8850;DHT22;5638;50.860;4.698;2022-10-18T06:46:57;16.10;99.90
8850;DHT22;5638;50.860;4.698;2022-10-18T06:49:22;16.10;99.90
8850;DHT22;5638;50.860;4.698;2022-10-18T06:51:48;16.10;99.90
8850;DHT22;5638;50.860;4.698;2022-10-18T06:54:14;16.10;99.90
8850;DHT22;5638;50.860;4.698;2022-10-18T06:56:40;16.20;99.90
8850;DHT22;5638;50.860;4.698;2022-10-18T06:59:06;16.20;99.90
8850;DHT22;5638;50.860;4.698;2022-10-18T07:01:32;16.20;99.90
8850;DHT22;5638;50.860;4.698;2022-10-18T07:03:58;16.20;99.90
8850;DHT22;5638;50.860;4.698;2022-10-18T07:06:24;16.20;99.90
8850;DHT22;5638;50.860;4.698;2022-10-18T07:08:50;16.20;99.90
8850;DHT22;5638;50.860;4.698;2022-10-18T07:11:21;16.30;99.90
8850;DHT22;5638;50.860;4.698;2022-10-18T07:13:50;16.30;99.90
8850;DHT22;5638;50.860;4.698;2022-10-18T07:16:18;16.30;99.90
8850;DHT22;5638;50.860;4.698;2022-10-18T07:18:49;16.30;99.90
8850;DHT22;5638;50.860;4.698;2022-10-18T07:21:18;16.30;99.90
8850;DHT22;5638;50.860;4.698;2022-10-18T07:23:45;16.40;99.90
8850;DHT22;5638;50.860;4.698;2022-10-18T07:26:18;16.40;99.90
8850;DHT22;5638;50.860;4.698;2022-10-18T07:28:51;16.40;99.90
8850;DHT22;5638;50.860;4.698;2022-10-18T07:31:20;16.40;99.90
8850;DHT22;5638;50.860;4.698;2022-10-18T07:33:47;16.40;99.90
8850;DHT22;5638;50.860;4.698;2022-10-18T07:36:13;16.40;99.90
8850;DHT22;5638;50.860;4.698;2022-10-18T07:38:39;16.40;99.90
8850;DHT22;5638;50.860;4.698;2022-10-18T07:41:06;16.40;99.90
8850;DHT22;5638;50.860;4.698;2022-10-18T07:43:35;16.40;99.90
8850;DHT22;5638;50.860;4.698;2022-10-18T07:46:03;16.40;99.90
8850;DHT22;5638;50.860;4.698;2022-10-18T07:48:30;16.40;99.90
8850;DHT22;5638;50.860;4.698;2022-10-18T07:51:00;16.40;99.90
8850;DHT22;5638;50.860;4.698;2022-10-18T07:53:27;16.40;99.90
8850;DHT22;5638;50.860;4.698;2022-10-18T07:56:01;16.40;99.90
8850;DHT22;5638;50.860;4.698;2022-10-18T07:58:30;16.40;99.90
8850;DHT22;5638;50.860;4.698;2022-10-18T08:01:01;16.40;99.90
8850;DHT22;5638;50.860;4.698;2022-10-18T08:03:32;16.50;99.90
8850;DHT22;5638;50.860;4.698;2022-10-18T08:05:58;16.60;99.90
8850;DHT22;5638;50.860;4.698;2022-10-18T08:08:25;16.90;99.90
8850;DHT22;5638;50.860;4.698;2022-10-18T08:10:51;17.20;99.90
8850;DHT22;5638;50.860;4.698;2022-10-18T08:13:18;17.30;99.90
8850;DHT22;5638;50.860;4.698;2022-10-18T08:15:45;17.30;99.90
8850;DHT22;5638;50.860;4.698;2022-10-18T08:18:12;17.30;99.90
8850;DHT22;5638;50.860;4.698;2022-10-18T08:20:42;17.20;99.90
8850;DHT22;5638;50.860;4.698;2022-10-18T08:23:09;17.20;99.90
8850;DHT22;5638;50.860;4.698;2022-10-18T08:25:35;17.20;99.90
8850;DHT22;5638;50.860;4.698;2022-10-18T08:28:01;17.50;99.90
8850;DHT22;5638;50.860;4.698;2022-10-18T08:30:27;17.80;99.90
8850;DHT22;5638;50.860;4.698;2022-10-18T08:32:52;18.10;99.90
8850;DHT22;5638;50.860;4.698;2022-10-18T08:35:18;18.50;99.90
8850;DHT22;5638;50.860;4.698;2022-10-18T08:37:44;18.90;99.90
8850;DHT22;5638;50.860;4.698;2022-10-18T08:40:13;19.10;99.90
8850;DHT22;5638;50.860;4.698;2022-10-18T08:42:50;19.20;99.90
8850;DHT22;5638;50.860;4.698;2022-10-18T08:45:23;19.50;99.90
8850;DHT22;5638;50.860;4.698;2022-10-18T08:47:50;19.90;99.90
8850;DHT22;5638;50.860;4.698;2022-10-18T08:50:29;20.10;99.90
8850;DHT22;5638;50.860;4.698;2022-10-18T08:56:30;20.80;99.90
8850;DHT22;5638;50.860;4.698;2022-10-18T08:59:01;21.20;99.90
8850;DHT22;5638;50.860;4.698;2022-10-18T09:22:22;21.40;99.90
8850;DHT22;5638;50.860;4.698;2022-10-18T09:25:05;21.50;99.90
8850;DHT22;5638;50.860;4.698;2022-10-18T09:27:51;21.20;99.90
8850;DHT22;5638;50.860;4.698;2022-10-18T09:31:04;21.00;99.90
8850;DHT22;5638;50.860;4.698;2022-10-18T09:36:18;20.80;99.90
8850;DHT22;5638;50.860;4.698;2022-10-18T09:38:50;20.70;99.90
8850;DHT22;5638;50.860;4.698;2022-10-18T09:44:48;20.30;99.90
8850;DHT22;5638;50.860;4.698;2022-10-18T09:47:19;20.60;99.90
8850;DHT22;5638;50.860;4.698;2022-10-18T09:49:59;21.10;99.90
8850;DHT22;5638;50.860;4.698;2022-10-18T09:52:35;21.50;99.90
8850;DHT22;5638;50.860;4.698;2022-10-18T09:55:13;21.70;99.90
8850;DHT22;5638;50.860;4.698;2022-10-18T09:57:47;21.60;99.90
8850;DHT22;5638;50.860;4.698;2022-10-18T10:00:22;21.10;99.90
8850;DHT22;5638;50.860;4.698;2022-10-18T10:02:52;20.80;99.90
8850;DHT22;5638;50.860;4.698;2022-10-18T10:05:18;21.10;99.90
8850;DHT22;5638;50.860;4.698;2022-10-18T10:07:46;21.10;99.90
8850;DHT22;5638;50.860;4.698;2022-10-18T10:10:29;21.10;99.90
8850;DHT22;5638;50.860;4.698;2022-10-18T10:13:06;20.90;99.90
8850;DHT22;5638;50.860;4.698;2022-10-18T10:16:01;21.00;99.90
8850;DHT22;5638;50.860;4.698;2022-10-18T10:18:35;20.80;99.90
8850;DHT22;5638;50.860;4.698;2022-10-18T10:21:13;20.60;99.90
8850;DHT22;5638;50.860;4.698;2022-10-18T10:23:54;20.40;99.90
8850;DHT22;5638;50.860;4.698;2022-10-18T10:26:27;20.50;99.90
8850;DHT22;5638;50.860;4.698;2022-10-18T10:28:56;20.90;99.90
8850;DHT22;5638;50.860;4.698;2022-10-18T10:34:04;21.90;99.90
8850;DHT22;5638;50.860;4.698;2022-10-18T10:36:52;22.20;99.90
8850;DHT22;5638;50.860;4.698;2022-10-18T10:39:21;22.20;99.90
8850;DHT22;5638;50.860;4.698;2022-10-18T10:41:56;22.30;99.90
8850;DHT22;5638;50.860;4.698;2022-10-18T10:44:27;22.70;99.90
8850;DHT22;5638;50.860;4.698;2022-10-18T10:46:57;23.00;99.90
8850;DHT22;5638;50.860;4.698;2022-10-18T10:49:28;23.10;99.90
8850;DHT22;5638;50.860;4.698;2022-10-18T10:52:19;23.10;99.90
8850;DHT22;5638;50.860;4.698;2022-10-18T10:54:47;23.20;99.90
8850;DHT22;5638;50.860;4.698;2022-10-18T10:59:46;23.90;99.90
8850;DHT22;5638;50.860;4.698;2022-10-18T11:02:21;24.30;99.90
8850;DHT22;5638;50.860;4.698;2022-10-18T11:04:54;24.30;99.90
8850;DHT22;5638;50.860;4.698;2022-10-18T11:07:35;24.30;99.90
8850;DHT22;5638;50.860;4.698;2022-10-18T11:10:11;24.60;99.90
8850;DHT22;5638;50.860;4.698;2022-10-18T11:12:47;24.80;99.90
8850;DHT22;5638;50.860;4.698;2022-10-18T11:15:42;24.80;99.90
8850;DHT22;5638;50.860;4.698;2022-10-18T11:18:45;24.90;99.90
8850;DHT22;5638;50.860;4.698;2022-10-18T11:21:24;25.00;99.90
8850;DHT22;5638;50.860;4.698;2022-10-18T11:23:53;25.20;99.90
8850;DHT22;5638;50.860;4.698;2022-10-18T11:32:37;25.70;99.90
8850;DHT22;5638;50.860;4.698;2022-10-18T11:35:34;25.80;99.90
8850;DHT22;5638;50.860;4.698;2022-10-18T11:38:27;25.90;99.90
8850;DHT22;5638;50.860;4.698;2022-10-18T11:44:21;26.40;99.90
8850;DHT22;5638;50.860;4.698;2022-10-18T11:47:31;26.50;99.90
8850;DHT22;5638;50.860;4.698;2022-10-18T11:53:07;27.00;99.90
8850;DHT22;5638;50.860;4.698;2022-10-18T12:05:05;26.90;99.90
8850;DHT22;5638;50.860;4.698;2022-10-18T12:07:36;27.10;99.90
8850;DHT22;5638;50.860;4.698;2022-10-18T12:10:15;26.90;99.90
8850;DHT22;5638;50.860;4.698;2022-10-18T12:12:53;26.70;99.90
8850;DHT22;5638;50.860;4.698;2022-10-18T12:15:27;26.60;99.90
8850;DHT22;5638;50.860;4.698;2022-10-18T12:18:03;26.30;99.90
8850;DHT22;5638;50.860;4.698;2022-10-18T12:21:01;26.40;99.90
8850;DHT22;5638;50.860;4.698;2022-10-18T12:23:44;26.70;99.90
8850;DHT22;5638;50.860;4.698;2022-10-18T12:26:16;26.70;99.90
8850;DHT22;5638;50.860;4.698;2022-10-18T12:31:33;27.20;99.90
8850;DHT22;5638;50.860;4.698;2022-10-18T12:37:18;26.90;99.90
8850;DHT22;5638;50.860;4.698;2022-10-18T12:40:15;27.20;99.90
8850;DHT22;5638;50.860;4.698;2022-10-18T12:42:48;27.40;99.90
8850;DHT22;5638;50.860;4.698;2022-10-18T12:45:30;27.40;99.90
8850;DHT22;5638;50.860;4.698;2022-10-18T12:48:06;27.00;99.80
8850;DHT22;5638;50.860;4.698;2022-10-18T12:50:36;27.10;99.90
8850;DHT22;5638;50.860;4.698;2022-10-18T12:53:23;27.20;99.90
8850;DHT22;5638;50.860;4.698;2022-10-18T12:55:51;27.10;99.90
8850;DHT22;5638;50.860;4.698;2022-10-18T12:58:27;27.20;99.90
8850;DHT22;5638;50.860;4.698;2022-10-18T13:01:00;27.20;99.90
8850;DHT22;5638;50.860;4.698;2022-10-18T13:03:59;27.20;99.90
8850;DHT22;5638;50.860;4.698;2022-10-18T13:06:24;27.20;99.90
8850;DHT22;5638;50.860;4.698;2022-10-18T13:09:38;26.90;99.90
8850;DHT22;5638;50.860;4.698;2022-10-18T13:20:37;26.30;99.90
8850;DHT22;5638;50.860;4.698;2022-10-18T13:26:28;26.40;99.90
8850;DHT22;5638;50.860;4.698;2022-10-18T13:31:46;26.90;99.90
8850;DHT22;5638;50.860;4.698;2022-10-18T13:34:30;26.90;99.90
8850;DHT22;5638;50.860;4.698;2022-10-18T13:37:05;26.80;99.90
8850;DHT22;5638;50.860;4.698;2022-10-18T13:39:45;26.80;99.90
8850;DHT22;5638;50.860;4.698;2022-10-18T13:44:52;26.80;99.90
8850;DHT22;5638;50.860;4.698;2022-10-18T13:47:38;26.70;99.90
8850;DHT22;5638;50.860;4.698;2022-10-18T13:50:17;26.70;99.90
8850;DHT22;5638;50.860;4.698;2022-10-18T14:07:35;26.60;99.90
8850;DHT22;5638;50.860;4.698;2022-10-18T14:10:02;26.50;99.90
8850;DHT22;5638;50.860;4.698;2022-10-18T14:12:48;26.40;99.90
8850;DHT22;5638;50.860;4.698;2022-10-18T14:15:34;26.50;99.90
8850;DHT22;5638;50.860;4.698;2022-10-18T14:18:22;26.40;99.90
8850;DHT22;5638;50.860;4.698;2022-10-18T14:20:56;26.50;99.90
8850;DHT22;5638;50.860;4.698;2022-10-18T14:23:32;26.50;99.90
8850;DHT22;5638;50.860;4.698;2022-10-18T14:26:18;26.50;99.90
8850;DHT22;5638;50.860;4.698;2022-10-18T14:29:03;26.30;99.90
8850;DHT22;5638;50.860;4.698;2022-10-18T14:31:31;26.10;99.90
8850;DHT22;5638;50.860;4.698;2022-10-18T14:33:59;26.10;99.90
8850;DHT22;5638;50.860;4.698;2022-10-18T14:36:35;26.10;99.90
8850;DHT22;5638;50.860;4.698;2022-10-18T14:39:06;26.00;99.90
8850;DHT22;5638;50.860;4.698;2022-10-18T14:41:50;26.10;99.90
8850;DHT22;5638;50.860;4.698;2022-10-18T14:44:27;26.00;99.90
8850;DHT22;5638;50.860;4.698;2022-10-18T14:49:24;25.80;99.90
8850;DHT22;5638;50.860;4.698;2022-10-18T14:51:56;25.60;99.90
8850;DHT22;5638;50.860;4.698;2022-10-18T14:57:00;25.40;99.90
8850;DHT22;5638;50.860;4.698;2022-10-18T14:59:31;25.10;99.90
8850;DHT22;5638;50.860;4.698;2022-10-18T15:02:35;25.50;99.90
8850;DHT22;5638;50.860;4.698;2022-10-18T15:07:48;25.70;99.90
8850;DHT22;5638;50.860;4.698;2022-10-18T15:10:22;25.40;99.90
8850;DHT22;5638;50.860;4.698;2022-10-18T15:12:52;25.40;99.90
8850;DHT22;5638;50.860;4.698;2022-10-18T15:15:23;25.20;99.90
8850;DHT22;5638;50.860;4.698;2022-10-18T15:17:52;25.20;99.90
8850;DHT22;5638;50.860;4.698;2022-10-18T15:20:25;25.10;99.90
8850;DHT22;5638;50.860;4.698;2022-10-18T15:23:20;25.00;99.90
8850;DHT22;5638;50.860;4.698;2022-10-18T15:25:49;25.10;99.90
8850;DHT22;5638;50.860;4.698;2022-10-18T15:28:28;24.90;99.90
8850;DHT22;5638;50.860;4.698;2022-10-18T15:30:56;25.20;99.90
8850;DHT22;5638;50.860;4.698;2022-10-18T15:33:25;25.20;99.90
8850;DHT22;5638;50.860;4.698;2022-10-18T15:35:52;25.30;99.90
8850;DHT22;5638;50.860;4.698;2022-10-18T15:38:29;25.30;99.90
8850;DHT22;5638;50.860;4.698;2022-10-18T15:40:57;25.20;99.90
8850;DHT22;5638;50.860;4.698;2022-10-18T15:45:53;25.00;99.90
8850;DHT22;5638;50.860;4.698;2022-10-18T15:48:34;24.70;99.90
8850;DHT22;5638;50.860;4.698;2022-10-18T15:54:17;24.70;99.90
8850;DHT22;5638;50.860;4.698;2022-10-18T15:56:44;24.70;99.90
8850;DHT22;5638;50.860;4.698;2022-10-18T15:59:28;24.50;99.90
8850;DHT22;5638;50.860;4.698;2022-10-18T16:01:56;24.40;99.90
8850;DHT22;5638;50.860;4.698;2022-10-18T16:04:26;24.30;99.90
8850;DHT22;5638;50.860;4.698;2022-10-18T16:06:53;24.00;99.90
8850;DHT22;5638;50.860;4.698;2022-10-18T16:09:23;23.90;99.90
8850;DHT22;5638;50.860;4.698;2022-10-18T16:11:50;23.90;99.90
8850;DHT22;5638;50.860;4.698;2022-10-18T16:14:17;23.80;99.90
8850;DHT22;5638;50.860;4.698;2022-10-18T16:16:44;23.70;99.90
8850;DHT22;5638;50.860;4.698;2022-10-18T16:19:15;23.60;99.90
8850;DHT22;5638;50.860;4.698;2022-10-18T16:21:47;23.40;99.90
8850;DHT22;5638;50.860;4.698;2022-10-18T16:24:13;23.10;99.90
8850;DHT22;5638;50.860;4.698;2022-10-18T16:26:39;22.90;99.90
8850;DHT22;5638;50.860;4.698;2022-10-18T16:29:05;22.80;99.90
8850;DHT22;5638;50.860;4.698;2022-10-18T16:31:35;22.50;99.90
8850;DHT22;5638;50.860;4.698;2022-10-18T16:34:01;22.10;99.90
8850;DHT22;5638;50.860;4.698;2022-10-18T16:36:29;21.80;99.90
8850;DHT22;5638;50.860;4.698;2022-10-18T16:39:00;21.70;99.90
8850;DHT22;5638;50.860;4.698;2022-10-18T16:41:28;21.50;99.90
8850;DHT22;5638;50.860;4.698;2022-10-18T16:43:54;21.40;99.90
8850;DHT22;5638;50.860;4.698;2022-10-18T16:46:28;21.30;99.90
8850;DHT22;5638;50.860;4.698;2022-10-18T16:48:57;21.20;99.90
8850;DHT22;5638;50.860;4.698;2022-10-18T16:51:24;21.10;99.90
8850;DHT22;5638;50.860;4.698;2022-10-18T16:53:51;21.00;99.90
8850;DHT22;5638;50.860;4.698;2022-10-18T16:56:20;20.90;99.90
8850;DHT22;5638;50.860;4.698;2022-10-18T16:58:49;20.80;99.90
8850;DHT22;5638;50.860;4.698;2022-10-18T17:01:17;20.80;99.90
8850;DHT22;5638;50.860;4.698;2022-10-18T17:03:45;20.90;99.90
8850;DHT22;5638;50.860;4.698;2022-10-18T17:08:50;20.90;99.90
8850;DHT22;5638;50.860;4.698;2022-10-18T17:11:18;20.90;99.90
8850;DHT22;5638;50.860;4.698;2022-10-18T17:13:46;20.90;99.90
8850;DHT22;5638;50.860;4.698;2022-10-18T17:16:32;20.80;99.90
8850;DHT22;5638;50.860;4.698;2022-10-18T17:19:04;20.90;99.90
8850;DHT22;5638;50.860;4.698;2022-10-18T17:21:31;20.70;99.90
8850;DHT22;5638;50.860;4.698;2022-10-18T17:23:58;20.50;99.90
8850;DHT22;5638;50.860;4.698;2022-10-18T17:26:26;20.50;99.90
8850;DHT22;5638;50.860;4.698;2022-10-18T17:28:55;20.40;99.90
8850;DHT22;5638;50.860;4.698;2022-10-18T17:31:26;20.20;99.90
8850;DHT22;5638;50.860;4.698;2022-10-18T17:33:52;20.00;99.90
8850;DHT22;5638;50.860;4.698;2022-10-18T17:36:22;19.90;99.90
8850;DHT22;5638;50.860;4.698;2022-10-18T17:38:50;19.70;99.90
8850;DHT22;5638;50.860;4.698;2022-10-18T17:41:16;19.60;99.90
8850;DHT22;5638;50.860;4.698;2022-10-18T17:43:42;19.60;99.90
8850;DHT22;5638;50.860;4.698;2022-10-18T17:46:10;19.50;99.90
8850;DHT22;5638;50.860;4.698;2022-10-18T17:48:37;19.40;99.90
8850;DHT22;5638;50.860;4.698;2022-10-18T17:51:07;19.30;99.90
8850;DHT22;5638;50.860;4.698;2022-10-18T17:53:34;19.20;99.90
8850;DHT22;5638;50.860;4.698;2022-10-18T17:56:02;19.20;99.90
8850;DHT22;5638;50.860;4.698;2022-10-18T17:58:28;19.00;99.90
8850;DHT22;5638;50.860;4.698;2022-10-18T18:00:55;19.00;99.90
8850;DHT22;5638;50.860;4.698;2022-10-18T18:03:21;19.00;99.90
8850;DHT22;5638;50.860;4.698;2022-10-18T18:05:47;18.90;99.90
8850;DHT22;5638;50.860;4.698;2022-10-18T18:08:14;18.80;99.90
8850;DHT22;5638;50.860;4.698;2022-10-18T18:10:40;18.80;99.90
8850;DHT22;5638;50.860;4.698;2022-10-18T18:13:06;18.70;99.90
8850;DHT22;5638;50.860;4.698;2022-10-18T18:15:32;18.70;99.90
8850;DHT22;5638;50.860;4.698;2022-10-18T18:17:57;18.70;99.90
8850;DHT22;5638;50.860;4.698;2022-10-18T18:20:24;18.70;99.90
8850;DHT22;5638;50.860;4.698;2022-10-18T18:22:51;18.70;99.90
8850;DHT22;5638;50.860;4.698;2022-10-18T18:25:17;18.60;99.90
8850;DHT22;5638;50.860;4.698;2022-10-18T18:27:42;18.60;99.90
8850;DHT22;5638;50.860;4.698;2022-10-18T18:30:09;18.50;99.90
8850;DHT22;5638;50.860;4.698;2022-10-18T18:32:35;18.40;99.90
8850;DHT22;5638;50.860;4.698;2022-10-18T18:35:01;18.30;99.90
8850;DHT22;5638;50.860;4.698;2022-10-18T18:37:26;18.20;99.90
8850;DHT22;5638;50.860;4.698;2022-10-18T18:39:52;18.20;99.90